Time;durP1;ratioP1;P1;durP2;ratioP2;P2;SDS_P1;SDS_P2;PMS_P1;PMS_P2;Temp;Humidity;BMP_temperature;BMP_pressure;BME280_temperature;BME280_humidity;BME280_pressure;Samples;Min_cycle;Max_cycle;Signal;HPM_P1;HPM_P2
2021/05/22 00:00:46;;;;;;;4.00;1.45;;;;;;;18.09;53.77;99268.30;1665276;85;20941;-88
2021/05/22 00:03:11;;;;;;;5.72;2.10;;;;;;;18.15;54.10;99275.41;1661355;84;21097;-89
2021/05/22 00:05:37;;;;;;;5.28;1.90;;;;;;;18.00;54.78;99275.01;1663436;85;20979;-88
2021/05/22 00:08:04;;;;;;;3.33;1.45;;;;;;;17.99;54.62;99264.02;1667392;84;20927;-85
2021/05/22 00:10:30;;;;;;;4.95;1.60;;;;;;;17.91;55.17;99272.66;1664415;86;20980;-85
2021/05/22 00:12:56;;;;;;;2.95;1.62;;;;;;;17.75;56.51;99283.92;1663974;84;20925;-85
2021/05/22 00:15:21;;;;;;;3.33;1.65;;;;;;;17.79;55.98;99282.94;1665087;84;20922;-88
2021/05/22 00:17:48;;;;;;;3.58;1.45;;;;;;;17.79;55.77;99274.93;1665334;84;21079;-88
2021/05/22 00:20:14;;;;;;;4.42;1.75;;;;;;;17.76;56.28;99270.88;1664547;84;21097;-86
2021/05/22 00:22:41;;;;;;;3.70;1.55;;;;;;;17.66;56.07;99270.58;1669723;84;21056;-84
2021/05/22 00:25:09;;;;;;;3.37;1.62;;;;;;;17.66;56.37;99261.23;1663914;86;21432;-85
2021/05/22 00:27:35;;;;;;;3.08;1.60;;;;;;;17.63;56.65;99264.35;1661640;86;21045;-85
2021/05/22 00:30:04;;;;;;;5.42;1.90;;;;;;;17.61;56.53;99261.10;1665464;84;21215;-86
2021/05/22 00:32:30;;;;;;;3.62;1.65;;;;;;;17.29;56.94;99261.25;1663131;85;21186;-82
2021/05/22 00:34:56;;;;;;;5.03;1.60;;;;;;;17.30;57.01;99262.89;1662413;84;20905;-86
2021/05/22 00:37:22;;;;;;;3.62;1.50;;;;;;;17.35;56.77;99255.02;1664253;86;21116;-85
2021/05/22 00:39:48;;;;;;;4.47;1.55;;;;;;;17.23;56.81;99256.30;1666812;84;21024;-85
2021/05/22 00:42:13;;;;;;;3.87;1.77;;;;;;;17.16;57.12;99284.36;1664141;86;21105;-87
2021/05/22 00:45:10;;;;;;;4.70;1.37;;;;;;;17.13;57.17;99275.99;1662717;84;20925;-86
2021/05/22 00:47:38;;;;;;;2.95;1.45;;;;;;;17.16;57.29;99276.36;1605509;88;23732;-86
2021/05/22 00:50:06;;;;;;;3.00;1.45;;;;;;;17.18;57.20;99266.30;1605057;87;21174;-86
2021/05/22 00:52:32;;;;;;;4.03;1.40;;;;;;;17.23;57.19;99263.77;1628434;86;21429;-88
2021/05/22 00:54:57;;;;;;;3.35;1.50;;;;;;;17.11;57.70;99268.20;1661999;86;20947;-86
2021/05/22 00:57:23;;;;;;;6.87;1.60;;;;;;;17.20;57.48;99265.55;1663462;86;20984;-86
2021/05/22 00:59:49;;;;;;;4.08;1.50;;;;;;;17.36;57.24;99268.14;1632155;84;20905;-87
2021/05/22 01:02:24;;;;;;;4.20;1.67;;;;;;;17.45;57.27;99271.34;1661170;84;21024;-85
2021/05/22 01:04:52;;;;;;;4.08;1.60;;;;;;;17.53;56.87;99268.36;1664845;84;21409;-85
2021/05/22 01:07:18;;;;;;;6.58;1.42;;;;;;;17.45;57.33;99271.34;1661655;84;21175;-85
2021/05/22 01:09:45;;;;;;;5.33;1.85;;;;;;;17.45;57.39;99276.68;1663123;84;21008;-87
2021/05/22 01:12:14;;;;;;;5.70;1.60;;;;;;;17.44;57.34;99273.70;1663353;84;21735;-85
2021/05/22 01:14:46;;;;;;;6.12;1.57;;;;;;;17.32;57.83;99276.81;1660767;84;21200;-86
2021/05/22 01:17:13;;;;;;;3.70;1.50;;;;;;;17.05;58.91;99282.42;1663097;84;21013;-84
2021/05/22 01:20:10;;;;;;;4.05;1.70;;;;;;;17.04;59.08;99283.45;1663671;86;21163;-85
2021/05/22 01:22:49;;;;;;;4.05;1.80;;;;;;;17.10;58.91;99279.91;1662781;84;21128;-86
2021/05/22 01:25:35;;;;;;;4.35;1.70;;;;;;;16.96;59.50;99282.41;1658901;84;21209;-84
2021/05/22 01:28:08;;;;;;;6.00;1.67;;;;;;;16.98;59.47;99284.33;1631905;86;21147;-85
2021/05/22 01:30:34;;;;;;;3.55;1.30;;;;;;;16.98;59.47;99284.33;1660625;84;21566;-85
2021/05/22 01:33:01;;;;;;;2.83;1.52;;;;;;;16.90;59.74;99284.62;1664029;84;21089;-85
2021/05/22 01:35:30;;;;;;;3.33;1.50;;;;;;;16.93;59.82;99281.52;1662012;84;21045;-86
2021/05/22 01:37:58;;;;;;;3.33;1.65;;;;;;;16.89;60.02;99274.97;1661948;84;21060;-85
2021/05/22 01:40:26;;;;;;;5.58;1.75;;;;;;;16.94;59.92;99273.82;1634471;86;21131;-85
2021/05/22 01:42:52;;;;;;;2.85;1.42;;;;;;;16.84;60.24;99271.10;1603361;84;21097;-84
2021/05/22 01:45:24;;;;;;;4.75;1.50;;;;;;;16.88;60.37;99273.36;1659008;85;21853;-84
2021/05/22 01:47:49;;;;;;;3.85;1.60;;;;;;;16.95;59.99;99264.27;1660992;84;21060;-85
2021/05/22 01:50:18;;;;;;;3.65;1.50;;;;;;;16.90;60.16;99264.61;1661123;84;21176;-88
2021/05/22 01:52:45;;;;;;;5.30;1.70;;;;;;;16.84;60.48;99275.10;1631761;86;21595;-88
2021/05/22 01:55:12;;;;;;;5.30;1.90;;;;;;;16.71;60.96;99283.20;1661921;86;21077;-87
2021/05/22 01:57:41;;;;;;;3.73;1.50;;;;;;;16.78;60.90;99290.64;1662745;84;21112;-85
2021/05/22 02:00:10;;;;;;;3.80;1.55;;;;;;;16.84;60.81;99292.44;1630619;86;21147;-84
2021/05/22 02:02:37;;;;;;;4.30;1.52;;;;;;;16.80;61.18;99285.89;1658678;86;21657;-88
2021/05/22 02:05:06;;;;;;;3.42;1.80;;;;;;;16.74;61.16;99281.96;1633846;85;21194;-85
2021/05/22 02:07:32;;;;;;;4.20;1.50;;;;;;;16.75;61.39;99283.57;1613278;86;21116;-88
2021/05/22 02:09:58;;;;;;;4.05;1.57;;;;;;;16.77;61.14;99286.33;1646542;85;21265;-85
2021/05/22 02:12:24;;;;;;;3.70;1.72;;;;;;;16.64;61.94;99284.59;1648608;85;21021;-85
2021/05/22 02:14:50;;;;;;;5.30;1.70;;;;;;;16.68;61.81;99283.11;1648496;86;20949;-87
2021/05/22 02:17:19;;;;;;;3.98;1.67;;;;;;;16.73;61.74;99285.13;1649258;85;21131;-85
2021/05/22 02:19:45;;;;;;;3.40;1.90;;;;;;;16.71;61.85;99289.87;1628555;86;21080;-85
2021/05/22 02:22:12;;;;;;;5.30;2.10;;;;;;;16.72;61.83;99282.67;1628282;86;21413;-85
2021/05/22 02:24:38;;;;;;;3.67;1.80;;;;;;;16.78;61.65;99269.31;1642266;85;21667;-85
2021/05/22 02:27:05;;;;;;;4.58;1.72;;;;;;;16.82;61.55;99264.34;1643252;85;21608;-85
2021/05/22 02:29:30;;;;;;;6.33;1.90;;;;;;;16.73;62.41;99274.45;1643425;85;21107;-90
2021/05/22 02:32:03;;;;;;;4.50;1.92;;;;;;;16.52;63.31;99275.67;1631896;85;20964;-87
2021/05/22 02:34:46;;;;;;;4.22;1.90;;;;;;;16.41;63.80;99275.84;1636941;86;21044;-84
2021/05/22 02:37:18;;;;;;;3.17;1.70;;;;;;;16.42;63.96;99273.98;1632795;85;21182;-85
2021/05/22 02:39:50;;;;;;;4.40;1.85;;;;;;;16.45;64.20;99265.06;1632470;85;21004;-85
2021/05/22 02:42:17;;;;;;;3.87;1.90;;;;;;;16.46;64.31;99258.69;1634268;85;21189;-84
2021/05/22 02:44:54;;;;;;;4.33;1.90;;;;;;;16.27;64.66;99237.02;1613301;85;21040;-86
2021/05/22 02:47:24;;;;;;;;;;;;;;;16.43;64.57;99256.45;1634196;86;21269;-85
2021/05/22 02:49:51;;;;;;;3.52;1.80;;;;;;;16.46;64.60;99248.02;1630296;86;20172;-90
2021/05/22 02:52:18;;;;;;;4.20;1.75;;;;;;;16.49;64.13;99255.59;1639626;87;21157;-89
2021/05/22 02:54:46;;;;;;;4.72;1.92;;;;;;;16.44;64.59;99266.09;1643076;87;21167;-84
2021/05/22 02:57:11;;;;;;;7.10;1.92;;;;;;;16.29;65.13;99260.25;1640351;85;21675;-90
2021/05/22 02:59:38;;;;;;;3.45;2.05;;;;;;;16.37;64.77;99256.51;1640035;85;21056;-85
2021/05/22 03:02:04;;;;;;;3.85;2.05;;;;;;;16.35;65.00;99258.05;1625738;86;21193;-84
2021/05/22 03:04:37;;;;;;;5.45;2.10;;;;;;;16.26;65.34;99263.34;1622097;86;21129;-85
2021/05/22 03:07:03;;;;;;;4.80;2.05;;;;;;;16.21;65.76;99281.30;1648023;85;21673;-85
2021/05/22 03:09:30;;;;;;;6.42;2.22;;;;;;;16.13;65.95;99279.70;1598110;87;21047;-85
2021/05/22 03:11:56;;;;;;;4.75;1.95;;;;;;;16.24;65.44;99276.07;1643104;85;21189;-84
2021/05/22 03:14:26;;;;;;;4.25;1.90;;;;;;;16.09;66.58;99291.81;1621577;87;20957;-85
2021/05/22 03:16:51;;;;;;;5.78;1.90;;;;;;;16.13;66.13;99293.03;1642327;85;21037;-86
2021/05/22 03:19:17;;;;;;;3.33;1.72;;;;;;;16.16;66.29;99298.45;1638180;86;20911;-85
2021/05/22 03:21:43;;;;;;;3.70;1.90;;;;;;;16.16;66.30;99297.13;1637831;85;20936;-84
2021/05/22 03:24:09;;;;;;;3.52;2.00;;;;;;;16.17;66.63;99301.92;1618919;86;21150;-83
2021/05/22 03:26:36;;;;;;;6.05;2.22;;;;;;;16.19;66.53;99299.85;1632015;85;20925;-86
2021/05/22 03:29:02;;;;;;;;;;;;;;;16.01;67.18;99293.40;1641514;84;21077;-84
2021/05/22 03:31:28;;;;;;;4.08;1.98;;;;;;;16.07;67.07;99302.39;1625069;85;20373;-84
2021/05/22 03:33:54;;;;;;;4.53;2.05;;;;;;;16.14;66.64;99306.66;1644683;85;21254;-90
2021/05/22 03:36:20;;;;;;;3.25;1.75;;;;;;;16.19;66.48;99299.85;1641307;85;21071;-87
2021/05/22 03:38:48;;;;;;;4.00;1.90;;;;;;;16.14;66.91;99296.00;1645980;85;21642;-87
2021/05/22 03:41:13;;;;;;;4.03;1.98;;;;;;;15.99;67.48;99287.48;1635269;85;21095;-86
2021/05/22 03:43:39;;;;;;;2.90;1.70;;;;;;;16.26;66.37;99292.65;1636723;87;20938;-86
2021/05/22 03:46:08;;;;;;;7.08;2.10;;;;;;;16.15;66.77;99300.28;1637489;85;21068;-88
2021/05/22 03:48:36;;;;;;;3.90;2.00;;;;;;;15.95;67.27;99294.25;1643021;85;21216;-85
2021/05/22 03:51:01;;;;;;;;;;;;;;;16.13;66.73;99285.03;1650261;85;21726;-85
2021/05/22 03:53:28;;;;;;;4.05;1.95;;;;;;;16.23;66.59;99289.08;1634783;87;20240;-84
2021/05/22 03:55:54;;;;;;;5.70;1.82;;;;;;;16.13;66.64;99294.36;1642897;85;21100;-87
2021/05/22 03:58:20;;;;;;;3.95;1.80;;;;;;;16.12;66.71;99296.70;1626156;86;21002;-84
2021/05/22 04:00:46;;;;;;;4.20;1.87;;;;;;;16.12;66.80;99316.69;1649888;83;21000;-86
2021/05/22 04:03:11;;;;;;;4.50;1.75;;;;;;;16.18;66.67;99310.23;1659914;84;21082;-87
2021/05/22 04:05:37;;;;;;;3.95;1.80;;;;;;;16.13;66.61;99310.34;1661360;84;20980;-85
2021/05/22 04:08:04;;;;;;;4.15;1.45;;;;;;;16.17;66.50;99312.58;1636976;85;21144;-85
2021/05/22 04:10:29;;;;;;;3.42;1.85;;;;;;;16.32;66.09;99322.43;1641079;84;21074;-87
2021/05/22 04:12:55;;;;;;;4.83;1.80;;;;;;;16.43;65.66;99313.74;1638673;85;21212;-84
2021/05/22 04:15:21;;;;;;;5.85;1.95;;;;;;;16.39;65.85;99305.90;1637511;85;21096;-85
2021/05/22 04:17:49;;;;;;;5.22;1.52;;;;;;;16.46;65.74;99307.98;1641043;85;20931;-84
2021/05/22 04:20:15;;;;;;;3.65;1.90;;;;;;;16.56;65.54;99305.36;1626712;85;21298;-85
2021/05/22 04:22:41;;;;;;;3.42;1.70;;;;;;;16.65;65.30;99304.06;1635367;86;21021;-86
2021/05/22 04:25:09;;;;;;;3.08;1.60;;;;;;;16.73;65.00;99296.31;1637858;85;21135;-85
2021/05/22 04:27:35;;;;;;;4.70;1.60;;;;;;;16.62;65.12;99293.30;1640773;85;21041;-82
2021/05/22 04:30:01;;;;;;;2.85;1.65;;;;;;;16.34;65.62;99292.38;1633159;86;20915;-83
2021/05/22 04:32:27;;;;;;;3.45;1.70;;;;;;;16.22;66.04;99296.77;1638731;85;21053;-83
2021/05/22 04:34:54;;;;;;;8.28;2.00;;;;;;;16.35;65.69;99302.02;1638965;85;21060;-85
2021/05/22 04:37:22;;;;;;;4.47;1.85;;;;;;;16.44;65.50;99311.39;1627049;85;20989;-85
2021/05/22 04:39:50;;;;;;;2.50;1.40;;;;;;;16.60;65.31;99310.05;1638423;86;21661;-86
2021/05/22 04:42:16;;;;;;;;;;;;;;;16.70;64.99;99314.88;1645434;85;21133;-86
2021/05/22 04:44:42;;;;;;;3.60;1.40;;;;;;;16.80;64.99;99315.23;1649663;83;20216;-85
2021/05/22 04:47:08;;;;;;;4.03;1.77;;;;;;;16.84;64.62;99320.44;1647371;85;20991;-84
2021/05/22 04:49:34;;;;;;;3.47;1.65;;;;;;;16.65;64.92;99320.05;1646532;85;21692;-85
2021/05/22 04:52:02;;;;;;;3.33;1.50;;;;;;;16.36;65.88;99308.99;1647042;84;20946;-85
2021/05/22 04:54:29;;;;;;;2.85;1.45;;;;;;;16.45;65.61;99313.03;1640970;85;21300;-88
2021/05/22 04:57:03;;;;;;;3.33;1.47;;;;;;;16.60;65.39;99309.23;1637719;85;21141;-87
2021/05/22 04:59:28;;;;;;;3.10;1.60;;;;;;;16.48;65.51;99301.11;1640904;85;21057;-85
2021/05/22 05:01:55;;;;;;;3.40;1.50;;;;;;;16.61;65.14;99298.86;1640210;85;21331;-86
2021/05/22 05:04:21;;;;;;;4.78;1.80;;;;;;;16.80;64.63;99301.89;1629857;85;21055;-87
2021/05/22 05:06:49;;;;;;;3.10;1.77;;;;;;;16.81;64.45;99303.53;1619717;85;21117;-87
2021/05/22 05:09:20;;;;;;;2.67;1.42;;;;;;;16.96;64.06;99307.74;1581908;87;21121;-88
2021/05/22 05:11:51;;;;;;;5.95;2.65;;;;;;;16.97;64.10;99313.39;1580676;87;21108;-88
2021/05/22 05:14:20;;;;;;;7.33;2.00;;;;;;;16.92;63.95;99320.70;1608393;87;21131;-88
2021/05/22 05:16:47;;;;;;;4.30;1.70;;;;;;;16.74;64.61;99328.09;1606925;87;21119;-89
2021/05/22 05:19:14;;;;;;;3.87;1.25;;;;;;;16.92;64.17;99331.37;1606367;87;21021;-88
2021/05/22 05:21:47;;;;;;;3.98;1.50;;;;;;;16.87;63.79;99324.53;1595476;87;21189;-88
2021/05/22 05:24:14;;;;;;;3.83;1.40;;;;;;;17.13;63.50;99322.15;1607012;87;21233;-88
2021/05/22 05:26:43;;;;;;;4.28;1.52;;;;;;;16.64;64.36;99323.75;1602854;87;22107;-85
2021/05/22 05:29:11;;;;;;;4.90;1.60;;;;;;;16.81;64.22;99308.03;1617224;87;21061;-88
2021/05/22 05:31:39;;;;;;;2.87;1.32;;;;;;;17.09;63.56;99304.97;1610615;87;21169;-90
2021/05/22 05:34:09;;;;;;;2.40;1.20;;;;;;;17.21;62.96;99308.55;1609127;86;22304;-88
2021/05/22 05:36:37;;;;;;;3.42;1.40;;;;;;;17.23;62.94;99300.32;1611046;86;21192;-88
2021/05/22 05:39:04;;;;;;;2.67;1.40;;;;;;;17.22;62.64;99296.02;1615944;87;21139;-87
2021/05/22 05:41:33;;;;;;;3.05;1.42;;;;;;;17.25;62.56;99290.77;1612692;87;21011;-89
2021/05/22 05:43:59;;;;;;;3.65;1.65;;;;;;;17.44;62.02;99307.06;1609968;86;21061;-88
2021/05/22 05:46:27;;;;;;;6.35;1.95;;;;;;;17.25;62.64;99314.78;1612214;87;21117;-88
2021/05/22 05:48:53;;;;;;;5.78;1.75;;;;;;;17.48;62.02;99314.10;1615582;86;22316;-87
2021/05/22 05:51:20;;;;;;;7.75;1.75;;;;;;;17.59;61.61;99306.18;1608366;86;21294;-88
2021/05/22 05:53:48;;;;;;;4.92;1.80;;;;;;;17.70;61.24;99305.16;1609875;86;26893;-87
2021/05/22 05:56:17;;;;;;;7.80;1.95;;;;;;;17.78;61.10;99304.03;1592350;87;21122;-87
2021/05/22 05:58:42;;;;;;;3.42;1.25;;;;;;;17.94;61.04;99304.77;1610984;86;21057;-88
2021/05/22 06:01:10;;;;;;;3.80;1.40;;;;;;;17.81;59.56;99305.72;1589993;87;21046;-88
2021/05/22 06:03:37;;;;;;;2.50;1.20;;;;;;;17.62;59.54;99304.93;1605033;87;21804;-89
2021/05/22 06:06:04;;;;;;;1.90;1.10;;;;;;;17.76;59.58;99309.59;1610312;87;21034;-87
2021/05/22 06:08:30;;;;;;;2.80;1.37;;;;;;;17.96;59.46;99305.88;1627635;85;21163;-89
2021/05/22 06:10:57;;;;;;;4.95;1.40;;;;;;;18.01;60.01;99316.72;1641383;85;20918;-88
2021/05/22 06:13:30;;;;;;;2.35;1.15;;;;;;;18.11;60.46;99308.44;1636395;85;21115;-88
2021/05/22 06:16:03;;;;;;;3.58;1.40;;;;;;;17.82;59.90;99310.04;1626194;86;21066;-85
2021/05/22 06:18:37;;;;;;;2.58;1.07;;;;;;;18.00;59.94;99310.55;1610006;87;21589;-88
2021/05/22 06:21:05;;;;;;;2.90;1.37;;;;;;;18.04;59.24;99309.59;1631410;86;21055;-88
2021/05/22 06:23:31;;;;;;;;;;;;;;;17.98;59.51;99315.84;1636624;85;22483;-88
2021/05/22 06:25:59;;;;;;;2.33;1.27;;;;;;;18.07;59.57;99321.13;1631869;86;20304;-87
2021/05/22 06:28:28;;;;;;;2.25;1.10;;;;;;;18.11;59.80;99329.00;1632199;85;21092;-87
2021/05/22 06:31:15;;;;;;;;;;;;;;;;;;;;;
2021/05/22 06:33:28;;;;;;;1.77;1.20;;;;;;;18.11;59.09;99314.31;1639255;85;21054;-88
2021/05/22 06:35:55;;;;;;;2.80;1.40;;;;;;;18.34;59.00;99315.45;1620761;85;21147;-89
2021/05/22 06:38:21;;;;;;;;;;;;;;;18.26;59.26;99312.05;1624398;85;21624;-87
2021/05/22 06:40:47;;;;;;;4.08;1.40;;;;;;;18.38;59.13;99313.93;1633475;85;21284;-88
2021/05/22 06:43:15;;;;;;;4.95;1.42;;;;;;;18.57;58.78;99328.07;1630752;86;21026;-87
2021/05/22 06:45:45;;;;;;;1.95;1.20;;;;;;;18.57;58.94;99336.89;1634858;86;20989;-88
2021/05/22 06:48:15;;;;;;;2.60;1.22;;;;;;;18.54;58.81;99344.56;1631464;85;21161;-89
2021/05/22 06:50:40;;;;;;;4.55;1.32;;;;;;;18.40;58.73;99346.62;1635575;86;21062;-89
2021/05/22 06:53:08;;;;;;;2.50;1.30;;;;;;;18.46;58.89;99341.70;1631154;86;21144;-88
2021/05/22 06:55:37;;;;;;;2.52;1.30;;;;;;;18.40;59.09;99335.39;1633019;85;21586;-89
2021/05/22 06:58:06;;;;;;;3.72;1.17;;;;;;;18.61;58.89;99332.73;1629686;85;21024;-88
2021/05/22 07:00:34;;;;;;;3.50;1.40;;;;;;;18.37;59.03;99319.00;1625052;85;21132;-88
2021/05/22 07:03:02;;;;;;;2.95;1.00;;;;;;;18.40;59.14;99308.66;1625931;85;21169;-86
2021/05/22 07:05:28;;;;;;;1.92;1.10;;;;;;;18.41;59.02;99314.31;1617281;85;21127;-87
2021/05/22 07:07:55;;;;;;;3.62;1.37;;;;;;;18.59;59.04;99324.64;1626089;86;21714;-87
2021/05/22 07:10:21;;;;;;;2.98;1.10;;;;;;;18.85;58.83;99327.45;1629183;86;26493;-89
2021/05/22 07:12:47;;;;;;;3.55;1.30;;;;;;;18.91;57.99;99325.69;1627691;85;21087;-89
2021/05/22 07:15:14;;;;;;;3.05;1.20;;;;;;;18.76;58.25;99307.41;1625893;87;21095;-88
2021/05/22 07:17:40;;;;;;;3.00;1.20;;;;;;;18.81;57.83;99283.44;1608665;85;21921;-85
2021/05/22 07:20:10;;;;;;;3.30;1.10;;;;;;;18.97;57.53;99314.06;1618057;86;21051;-89
2021/05/22 07:22:35;;;;;;;3.67;1.20;;;;;;;18.72;58.17;99316.92;1628949;85;21038;-87
2021/05/22 07:25:03;;;;;;;3.83;1.07;;;;;;;18.94;57.83;99319.38;1626539;86;20882;-89
2021/05/22 07:27:34;;;;;;;1.87;1.00;;;;;;;18.95;57.35;99329.55;1611466;87;21659;-87
2021/05/22 07:29:57;;;;;;;1.52;0.93;;;;;;;19.03;57.20;99325.71;1635047;85;21064;-88
2021/05/22 07:32:24;;;;;;;3.45;1.17;;;;;;;19.06;57.35;99325.25;1637655;85;20954;-87
2021/05/22 07:34:52;;;;;;;2.90;0.90;;;;;;;19.03;57.51;99323.03;1640168;85;21599;-87
2021/05/22 07:37:17;;;;;;;2.30;1.00;;;;;;;19.08;57.25;99311.10;1640761;85;21114;-87
2021/05/22 07:39:44;;;;;;;2.50;1.20;;;;;;;18.93;57.38;99316.40;1639152;85;21005;-86
2021/05/22 07:42:11;;;;;;;1.95;0.90;;;;;;;19.10;57.22;99318.39;1632722;85;26949;-88
2021/05/22 07:44:37;;;;;;;1.87;0.93;;;;;;;19.10;56.76;99319.73;1629444;86;21007;-89
2021/05/22 07:47:03;;;;;;;2.12;1.07;;;;;;;19.26;56.64;99302.15;1633167;85;21020;-90
2021/05/22 07:49:37;;;;;;;2.72;0.90;;;;;;;19.22;56.56;99297.80;1625041;83;20914;-87
2021/05/22 07:51:59;;;;;;;2.40;1.10;;;;;;;19.16;56.26;99296.05;1643767;85;21000;-87
2021/05/22 07:54:27;;;;;;;2.10;1.07;;;;;;;19.19;56.38;99304.95;1610718;86;21733;-88
2021/05/22 07:56:54;;;;;;;2.62;1.10;;;;;;;19.40;56.24;99293.34;1633655;86;21026;-89
2021/05/22 07:59:20;;;;;;;2.27;1.12;;;;;;;19.42;56.28;99300.11;1616789;84;21105;-87
2021/05/22 08:01:45;;;;;;;3.65;1.00;;;;;;;19.46;55.85;99313.83;1619379;85;21752;-86
2021/05/22 08:04:11;;;;;;;2.80;1.30;;;;;;;19.24;55.49;99314.42;1639935;85;20979;-87
2021/05/22 08:06:41;;;;;;;2.05;1.00;;;;;;;19.16;55.79;99318.80;1641289;85;20969;-87
2021/05/22 08:09:11;;;;;;;3.40;1.00;;;;;;;19.22;55.70;99319.21;1611825;86;20993;-86
2021/05/22 08:11:38;;;;;;;2.75;1.00;;;;;;;19.43;55.58;99318.31;1620910;86;21097;-84
2021/05/22 08:14:06;;;;;;;1.77;1.00;;;;;;;19.31;55.85;99311.12;1637340;86;21097;-88
2021/05/22 08:16:33;;;;;;;2.60;1.70;;;;;;;19.25;54.86;99317.41;1610018;86;21128;-85
2021/05/22 08:18:59;;;;;;;1.32;0.95;;;;;;;19.05;55.34;99312.91;1598081;86;21135;-86
2021/05/22 08:21:26;;;;;;;2.20;1.10;;;;;;;19.01;54.93;99312.03;1606804;87;21119;-86
2021/05/22 08:23:52;;;;;;;6.08;1.70;;;;;;;18.83;55.38;99316.11;1615001;87;21083;-85
2021/05/22 08:26:22;;;;;;;3.45;1.30;;;;;;;18.86;55.09;99315.68;1622417;84;20989;-88
2021/05/22 08:28:47;;;;;;;2.98;1.37;;;;;;;18.92;55.69;99318.77;1623260;86;21207;-85
2021/05/22 08:31:15;;;;;;;3.17;1.40;;;;;;;19.06;55.79;99317.22;1598743;86;21019;-87
2021/05/22 08:33:43;;;;;;;4.47;1.40;;;;;;;19.07;56.06;99318.86;1620820;86;21103;-89
2021/05/22 08:36:11;;;;;;;4.95;1.67;;;;;;;19.22;56.01;99324.56;1618094;86;21139;-86
2021/05/22 08:38:41;;;;;;;2.77;1.22;;;;;;;19.33;55.95;99329.09;1619356;86;21170;-85
2021/05/22 08:41:07;;;;;;;4.40;1.45;;;;;;;19.27;56.82;99330.56;1618065;86;21106;-84
2021/05/22 08:43:37;;;;;;;3.95;1.40;;;;;;;19.20;56.36;99314.59;1619673;86;21148;-84
2021/05/22 08:46:09;;;;;;;6.92;1.70;;;;;;;19.30;57.22;99320.72;1617087;86;21089;-85
2021/05/22 08:48:36;;;;;;;5.17;1.92;;;;;;;19.37;58.19;99322.23;1603408;86;21641;-83
2021/05/22 08:51:02;;;;;;;;;;;;;;;19.49;58.16;99324.07;1624104;86;21151;-83
2021/05/22 08:53:33;;;;;;;5.40;2.10;;;;;;;19.60;59.08;99321.08;1612643;86;20607;-85
2021/05/22 08:56:00;;;;;;;8.08;2.33;;;;;;;19.58;60.42;99325.34;1610901;87;21704;-84
2021/05/22 08:58:26;;;;;;;9.83;2.47;;;;;;;19.49;61.15;99326.75;1612507;85;21099;-88
2021/05/22 09:00:53;;;;;;;2.98;1.42;;;;;;;19.59;61.26;99332.30;1610064;86;20987;-85
2021/05/22 09:03:19;;;;;;;4.92;1.95;;;;;;;19.41;61.29;99332.47;1610082;86;21700;-84
2021/05/22 09:05:45;;;;;;;18.85;4.28;;;;;;;19.53;61.73;99333.27;1614540;86;20959;-87
2021/05/22 09:08:14;;;;;;;10.40;2.85;;;;;;;19.49;63.11;99332.10;1617228;86;21928;-85
2021/05/22 09:10:49;;;;;;;4.80;1.75;;;;;;;19.29;64.44;99334.61;1606921;86;21089;-84
2021/05/22 09:13:29;;;;;;;3.45;1.40;;;;;;;19.41;63.66;99328.45;1611000;86;21055;-87
2021/05/22 09:16:03;;;;;;;3.17;1.40;;;;;;;19.40;64.13;99325.48;1594798;86;38929;-86
2021/05/22 09:18:35;;;;;;;3.15;1.47;;;;;;;19.34;64.55;99318.68;1606262;86;21126;-87
2021/05/22 09:21:03;;;;;;;5.00;1.50;;;;;;;19.24;64.83;99321.13;1619341;86;21872;-86
2021/05/22 09:23:35;;;;;;;3.12;1.37;;;;;;;19.22;65.00;99323.73;1608863;86;21186;-87
2021/05/22 09:26:03;;;;;;;3.87;1.45;;;;;;;19.02;65.25;99322.23;1604281;87;21630;-87
2021/05/22 09:28:33;;;;;;;3.85;1.40;;;;;;;19.04;65.45;99315.31;1571043;87;21115;-87
2021/05/22 09:31:00;;;;;;;3.15;1.47;;;;;;;18.93;65.79;99312.38;1602609;87;21158;-86
2021/05/22 09:33:28;;;;;;;3.27;1.80;;;;;;;18.82;66.88;99320.66;1592865;87;21129;-86
2021/05/22 09:36:08;;;;;;;3.12;1.47;;;;;;;18.74;67.87;99321.00;1606408;87;20992;-86
2021/05/22 09:38:47;;;;;;;4.15;1.50;;;;;;;18.85;67.56;99308.72;1599986;87;21072;-87
2021/05/22 09:41:20;;;;;;;3.10;1.55;;;;;;;18.46;67.57;99317.64;1586106;87;21656;-87
2021/05/22 09:44:15;;;;;;;2.60;1.37;;;;;;;17.86;68.43;99309.86;1606556;87;21063;-87
2021/05/22 09:46:50;;;;;;;4.22;2.27;;;;;;;17.44;68.58;99320.41;1608375;87;21303;-85
2021/05/22 09:49:28;;;;;;;2.83;1.17;;;;;;;17.41;68.38;99318.19;1601662;87;21783;-83
2021/05/22 09:52:12;;;;;;;6.00;1.55;;;;;;;16.97;70.67;99321.39;1608339;86;22221;-86
2021/05/22 09:54:53;;;;;;;3.70;1.70;;;;;;;17.08;70.65;99318.53;1623617;86;21113;-86
2021/05/22 09:57:39;;;;;;;2.62;1.40;;;;;;;16.79;71.04;99313.58;1628625;86;21060;-87
2021/05/22 10:00:24;;;;;;;2.10;1.42;;;;;;;16.97;71.53;99320.05;1603926;87;21151;-86
2021/05/22 10:02:58;;;;;;;3.75;1.65;;;;;;;16.85;72.51;99311.91;1604811;87;21408;-85
2021/05/22 10:05:29;;;;;;;4.08;1.90;;;;;;;16.81;73.34;99316.03;1607754;87;21146;-86
2021/05/22 10:07:56;;;;;;;3.85;2.10;;;;;;;16.55;74.72;99318.41;1599926;84;21103;-85
2021/05/22 10:10:41;;;;;;;3.60;2.02;;;;;;;16.44;75.47;99308.73;1662138;84;21070;-85
2021/05/22 10:13:07;;;;;;;4.03;2.05;;;;;;;16.42;75.49;99320.13;1654469;83;21244;-86
2021/05/22 10:15:35;;;;;;;4.90;2.43;;;;;;;16.38;76.00;99309.59;1651258;85;21675;-85
2021/05/22 10:18:03;;;;;;;4.58;2.10;;;;;;;16.35;76.55;99313.20;1652491;85;21006;-85
2021/05/22 10:20:29;;;;;;;6.22;2.15;;;;;;;16.23;76.94;99301.06;1652257;85;21141;-86
2021/05/22 10:22:54;;;;;;;4.83;2.05;;;;;;;16.30;77.39;99305.33;1641105;85;21071;-85
2021/05/22 10:25:21;;;;;;;3.15;1.95;;;;;;;16.38;77.14;99306.92;1623731;85;21855;-86
2021/05/22 10:27:48;;;;;;;4.85;1.95;;;;;;;16.27;77.00;99299.09;1639713;85;21200;-86
2021/05/22 10:30:19;;;;;;;5.30;2.27;;;;;;;16.46;77.14;99301.32;1636747;85;21095;-85
2021/05/22 10:32:46;;;;;;;4.25;2.10;;;;;;;16.17;78.35;99297.92;1645859;85;21092;-85
2021/05/22 10:35:23;;;;;;;5.75;2.60;;;;;;;16.13;78.92;99294.88;1642106;85;21635;-85
2021/05/22 10:37:49;;;;;;;5.60;2.52;;;;;;;16.18;79.06;99299.05;1623219;86;21019;-85
2021/05/22 10:40:19;;;;;;;4.60;2.42;;;;;;;16.27;78.77;99296.95;1645311;85;21159;-84
2021/05/22 10:42:54;;;;;;;6.97;2.27;;;;;;;16.29;79.10;99298.88;1643019;85;21111;-85
2021/05/22 10:45:37;;;;;;;7.12;2.70;;;;;;;16.36;79.17;99298.83;1647821;85;21061;-83
2021/05/22 10:48:21;;;;;;;6.35;2.50;;;;;;;16.14;79.99;99297.83;1630452;86;21119;-85
2021/05/22 10:50:49;;;;;;;3.92;2.20;;;;;;;16.19;80.46;99286.53;1619473;86;21180;-85
2021/05/22 10:53:33;;;;;;;4.95;2.42;;;;;;;16.43;79.71;99283.09;1648609;85;20993;-84
2021/05/22 10:56:16;;;;;;;5.37;2.60;;;;;;;16.51;79.04;99284.69;1650231;85;21589;-85
2021/05/22 10:59:09;;;;;;;5.55;2.67;;;;;;;16.49;78.64;99292.09;1650963;85;21063;-84
2021/05/22 11:01:35;;;;;;;4.78;2.80;;;;;;;16.21;79.75;99282.63;1650737;85;21047;-84
2021/05/22 11:04:14;;;;;;;6.62;2.70;;;;;;;15.99;81.67;99276.83;1649642;85;21866;-83
2021/05/22 11:06:45;;;;;;;5.62;2.65;;;;;;;16.18;81.04;99271.60;1634239;85;21627;-84
2021/05/22 11:09:35;;;;;;;5.50;3.00;;;;;;;16.03;81.88;99270.02;1609971;87;21157;-83
2021/05/22 11:12:18;;;;;;;5.55;2.67;;;;;;;16.10;81.57;99265.48;1621294;87;21034;-85
2021/05/22 11:14:50;;;;;;;5.70;2.70;;;;;;;16.11;81.12;99252.48;1619955;87;21063;-86
2021/05/22 11:17:29;;;;;;;4.70;2.70;;;;;;;16.12;81.93;99252.77;1620557;87;21679;-86
2021/05/22 11:20:04;;;;;;;4.50;2.52;;;;;;;15.86;82.85;99247.59;1626161;85;21788;-86
2021/05/22 11:22:53;;;;;;;6.35;2.90;;;;;;;16.08;82.14;99238.27;1622561;86;21066;-85
2021/05/22 11:25:17;;;;;;;7.12;2.85;;;;;;;16.17;82.36;99236.14;1622106;86;21346;-84
2021/05/22 11:28:02;;;;;;;6.28;2.55;;;;;;;16.30;81.21;99232.59;1580424;86;21608;-86
2021/05/22 11:30:37;;;;;;;4.53;2.70;;;;;;;16.44;80.58;99233.30;1624501;86;21115;-86
2021/05/22 11:33:08;;;;;;;6.03;2.95;;;;;;;16.54;80.24;99227.48;1623448;86;21111;-86
2021/05/22 11:35:46;;;;;;;5.67;2.60;;;;;;;16.58;80.61;99221.98;1624188;87;21130;-85
2021/05/22 11:38:21;;;;;;;8.08;3.67;;;;;;;16.66;78.60;99217.73;1625353;86;21043;-89
2021/05/22 11:40:50;;;;;;;5.20;3.00;;;;;;;16.42;80.70;99213.53;1622832;86;21693;-87
2021/05/22 11:43:22;;;;;;;5.37;2.83;;;;;;;16.51;79.32;99210.90;1621618;86;21133;-85
2021/05/22 11:45:50;;;;;;;5.67;2.67;;;;;;;16.38;79.90;99210.99;1623907;86;21033;-85